Time;durP1;ratioP1;P1;durP2;ratioP2;P2;SDS_P1;SDS_P2;PMS_P1;PMS_P2;Temp;Humidity;BMP_temperature;BMP_pressure;BME280_temperature;BME280_humidity;BME280_pressure;Samples;Min_cycle;Max_cycle;Signal;HPM_P1;HPM_P2
2021/03/26 00:01:47;;;;;;;57.00;22.20;;;;;;;23.90;16.26;98682.00;5052875;28;20115;-88
2021/03/26 00:04:15;;;;;;;42.22;19.23;;;;;;;23.89;16.52;98676.81;5049323;28;20041;-88
2021/03/26 00:06:43;;;;;;;43.58;20.23;;;;;;;23.87;16.08;98687.66;5065495;28;20025;-88
2021/03/26 00:09:14;;;;;;;48.03;20.60;;;;;;;23.56;16.31;98677.59;5069719;28;20029;-87
2021/03/26 00:11:41;;;;;;;47.55;20.77;;;;;;;23.13;17.12;98682.75;5068517;28;20040;-87
2021/03/26 00:14:07;;;;;;;41.75;16.73;;;;;;;22.87;17.49;98681.38;5060651;28;20139;-88
2021/03/26 00:16:33;;;;;;;44.47;19.23;;;;;;;23.24;16.89;98677.88;5065549;28;20037;-88
2021/03/26 00:19:00;;;;;;;44.72;19.80;;;;;;;23.42;16.83;98686.13;5070896;28;20033;-88
2021/03/26 00:21:26;;;;;;;44.95;18.00;;;;;;;23.48;16.38;98682.47;5069851;28;20056;-88
2021/03/26 00:23:52;;;;;;;44.22;20.38;;;;;;;23.48;16.62;98679.66;5062064;28;20045;-88
2021/03/26 00:26:19;;;;;;;49.92;21.48;;;;;;;23.16;16.71;98681.94;5060439;28;20488;-88
2021/03/26 00:28:45;;;;;;;42.40;19.52;;;;;;;23.06;16.83;98689.22;5074616;28;20040;-88
2021/03/26 00:31:12;;;;;;;46.08;20.10;;;;;;;23.07;16.69;98678.81;5051311;28;20036;-87
2021/03/26 00:33:38;;;;;;;40.40;17.77;;;;;;;23.10;16.57;98680.81;5062555;28;20056;-88
2021/03/26 00:36:05;;;;;;;43.45;19.58;;;;;;;23.38;16.57;98679.78;5063203;28;20117;-87
2021/03/26 00:38:31;;;;;;;41.90;18.48;;;;;;;23.66;16.18;98671.88;5060091;28;20093;-88
2021/03/26 00:40:57;;;;;;;41.80;17.30;;;;;;;23.80;15.93;98671.72;5050005;28;20124;-88
2021/03/26 00:43:24;;;;;;;40.35;18.27;;;;;;;23.90;15.69;98681.19;5058971;28;20108;-87
2021/03/26 00:45:50;;;;;;;42.97;18.60;;;;;;;23.97;15.75;98676.31;5057575;28;20033;-88
2021/03/26 00:48:19;;;;;;;44.00;18.33;;;;;;;23.96;15.54;98676.75;5059405;28;20115;-88
2021/03/26 00:50:49;;;;;;;43.03;19.38;;;;;;;23.91;15.82;98675.19;5057282;28;20059;-87
2021/03/26 00:53:23;;;;;;;50.65;20.95;;;;;;;23.22;16.28;98675.47;5062935;28;20045;-87
2021/03/26 00:55:50;;;;;;;45.72;18.35;;;;;;;23.12;16.21;98675.56;5043876;28;20116;-87
2021/03/26 00:58:17;;;;;;;42.78;18.23;;;;;;;23.24;16.14;98667.44;5059099;28;20080;-87
2021/03/26 01:00:43;;;;;;;42.63;17.58;;;;;;;23.34;16.03;98660.97;5046939;28;20029;-87
2021/03/26 01:03:10;;;;;;;40.55;18.40;;;;;;;23.30;16.49;98657.41;5064305;28;20025;-87
2021/03/26 01:05:41;;;;;;;39.85;17.25;;;;;;;23.27;16.71;98665.81;5055909;28;20032;-87
2021/03/26 01:08:08;;;;;;;38.75;16.90;;;;;;;23.27;16.81;98661.03;5054344;28;20069;-87
2021/03/26 01:10:43;;;;;;;39.88;16.90;;;;;;;23.24;16.56;98661.84;5056605;28;20037;-87
2021/03/26 01:13:10;;;;;;;39.90;16.75;;;;;;;22.96;16.79;98661.31;5058676;28;20124;-87
2021/03/26 01:15:37;;;;;;;43.65;19.52;;;;;;;23.09;16.91;98654.00;5047581;28;20510;-87
2021/03/26 01:18:06;;;;;;;44.33;19.45;;;;;;;22.78;17.17;98657.88;5060824;28;20028;-87
2021/03/26 01:20:37;;;;;;;38.60;17.13;;;;;;;22.79;17.38;98657.44;5068846;28;20108;-88
2021/03/26 01:23:06;;;;;;;39.95;15.77;;;;;;;23.00;17.27;98651.66;5055857;28;20534;-87
2021/03/26 01:25:37;;;;;;;47.55;18.65;;;;;;;23.17;16.70;98649.94;5059196;28;20025;-87
2021/03/26 01:28:05;;;;;;;41.63;17.67;;;;;;;23.31;16.74;98647.75;5062450;28;20033;-87
2021/03/26 01:30:31;;;;;;;41.20;18.00;;;;;;;23.30;16.41;98656.59;5072341;28;20048;-87
2021/03/26 01:32:58;;;;;;;38.28;16.77;;;;;;;23.17;16.39;98658.34;5064659;28;20033;-87
2021/03/26 01:35:26;;;;;;;40.28;17.38;;;;;;;23.27;16.55;98657.41;5059087;28;20036;-87
2021/03/26 01:37:52;;;;;;;39.20;18.23;;;;;;;22.90;16.95;98652.53;5056570;28;20135;-87
2021/03/26 01:40:28;;;;;;;38.53;18.27;;;;;;;22.79;16.91;98656.63;5060551;28;20037;-87
2021/03/26 01:43:11;;;;;;;39.80;19.48;;;;;;;22.44;17.54;98661.25;5050915;28;20400;-88
2021/03/26 01:45:38;;;;;;;44.17;18.70;;;;;;;22.53;17.36;98660.78;5060244;28;20029;-88
2021/03/26 01:48:06;;;;;;;40.67;17.17;;;;;;;22.81;17.19;98659.81;5076894;28;20443;-88
2021/03/26 01:50:34;;;;;;;42.40;18.67;;;;;;;23.03;16.62;98662.06;5060368;28;20392;-88
2021/03/26 01:53:00;;;;;;;36.05;15.73;;;;;;;23.02;16.79;98657.66;5063406;28;20383;-87
2021/03/26 01:55:35;;;;;;;33.10;15.38;;;;;;;22.97;16.71;98665.69;5062862;28;20064;-87
2021/03/26 01:58:01;;;;;;;33.92;15.30;;;;;;;23.05;16.63;98661.63;5068074;28;20036;-88
2021/03/26 02:00:42;;;;;;;36.30;17.85;;;;;;;22.81;16.97;98655.03;5062866;28;20120;-87
2021/03/26 02:03:36;;;;;;;39.20;16.67;;;;;;;23.15;16.77;98655.94;5070138;28;20036;-87
2021/03/26 02:06:09;;;;;;;37.75;16.52;;;;;;;23.36;16.71;98655.75;5064017;28;20036;-87
2021/03/26 02:08:38;;;;;;;35.47;15.20;;;;;;;23.56;16.75;98657.97;5064233;28;20040;-87
2021/03/26 02:11:21;;;;;;;34.72;14.82;;;;;;;23.59;16.59;98659.94;5068128;28;20060;-87
2021/03/26 02:13:48;;;;;;;34.08;15.35;;;;;;;23.35;16.75;98661.78;5039036;28;20419;-86
2021/03/26 02:16:16;;;;;;;33.63;15.05;;;;;;;22.89;16.95;98666.97;5060891;28;20115;-87
2021/03/26 02:18:43;;;;;;;40.22;17.27;;;;;;;23.09;16.85;98670.78;5066383;28;20190;-87
2021/03/26 02:21:23;;;;;;;41.70;18.92;;;;;;;23.17;16.66;98669.53;5059579;28;20060;-87
2021/03/26 02:23:51;;;;;;;38.88;16.73;;;;;;;23.20;16.43;98679.91;5058815;28;20445;-87
2021/03/26 02:26:33;;;;;;;34.38;16.27;;;;;;;23.35;16.05;98682.19;5065684;28;20477;-87
2021/03/26 02:29:02;;;;;;;38.13;16.52;;;;;;;23.65;15.77;98677.88;5064325;28;20032;-85
2021/03/26 02:31:29;;;;;;;39.13;15.55;;;;;;;23.64;15.84;98673.50;5065459;28;20067;-86
2021/03/26 02:33:55;;;;;;;39.60;16.90;;;;;;;23.56;15.52;98678.38;5064939;28;20032;-88
2021/03/26 02:36:38;;;;;;;42.47;19.58;;;;;;;23.16;15.69;98684.75;5063447;28;20057;-89
2021/03/26 02:39:12;;;;;;;36.42;14.77;;;;;;;22.99;16.10;98689.28;5067711;28;20029;-89
2021/03/26 02:41:43;;;;;;;37.95;17.10;;;;;;;22.78;16.53;98691.47;5053009;28;20393;-88
2021/03/26 02:44:34;;;;;;;37.22;16.52;;;;;;;22.69;16.46;98686.31;5064245;28;20040;-89
2021/03/26 02:47:18;;;;;;;;;;;;;;;22.87;16.58;98686.97;5062936;28;20598;-89
2021/03/26 02:50:05;;;;;;;31.13;14.27;;;;;;;23.23;15.98;98679.06;5062978;28;20399;-89
2021/03/26 02:52:42;;;;;;;38.92;16.13;;;;;;;23.31;15.73;98686.22;5061848;28;20476;-89
2021/03/26 02:55:19;;;;;;;36.88;16.35;;;;;;;23.38;16.02;98691.00;5058532;28;20092;-89
2021/03/26 02:57:56;;;;;;;32.67;14.38;;;;;;;23.35;16.02;98689.81;5053578;28;20024;-89
2021/03/26 03:00:25;;;;;;;30.92;13.60;;;;;;;23.36;16.09;98683.78;5059316;28;20021;-89
2021/03/26 03:02:55;;;;;;;32.63;13.98;;;;;;;23.35;15.50;98689.81;5061114;28;20047;-89
2021/03/26 03:05:31;;;;;;;37.22;15.65;;;;;;;23.31;15.90;98694.63;5054203;28;20377;-89
2021/03/26 03:08:20;;;;;;;31.88;13.75;;;;;;;23.53;15.93;98695.22;5064167;28;20440;-90
2021/03/26 03:10:54;;;;;;;37.35;17.77;;;;;;;23.32;16.20;98691.41;5059212;28;20041;-89
2021/03/26 03:13:37;;;;;;;35.53;14.77;;;;;;;23.29;16.24;98694.25;5066280;28;20036;-86
2021/03/26 03:16:16;;;;;;;32.85;14.63;;;;;;;22.66;16.78;98692.75;5062677;28;20029;-86
2021/03/26 03:19:32;;;;;;;33.22;15.00;;;;;;;22.63;17.31;98702.75;5044151;28;20411;-86
2021/03/26 03:22:14;;;;;;;36.95;16.75;;;;;;;22.97;16.59;98705.69;5005522;28;20492;-86
2021/03/26 03:24:43;;;;;;;37.50;15.70;;;;;;;23.27;16.62;98705.84;5055145;28;20719;-86
2021/03/26 03:27:58;;;;;;;40.70;18.15;;;;;;;23.22;16.37;98697.13;5034661;28;20540;-89
2021/03/26 03:30:30;;;;;;;35.20;15.73;;;;;;;23.07;16.32;98701.22;5016921;28;20076;-89
2021/03/26 03:33:04;;;;;;;32.72;15.20;;;;;;;23.17;16.25;98701.16;5061997;28;20052;-89
2021/03/26 03:35:39;;;;;;;34.85;14.40;;;;;;;23.09;16.42;98698.81;5055227;28;20055;-88
2021/03/26 03:38:28;;;;;;;30.95;14.38;;;;;;;22.93;16.31;98698.53;5059141;28;20034;-88
2021/03/26 03:41:18;;;;;;;27.83;13.23;;;;;;;23.17;16.44;98698.34;5049554;28;20508;-88
2021/03/26 03:44:10;;;;;;;32.45;15.25;;;;;;;23.16;16.55;98696.75;5059293;28;20480;-88
2021/03/26 03:46:50;;;;;;;41.85;17.10;;;;;;;23.13;16.49;98694.75;5050619;28;20420;-88
2021/03/26 03:49:45;;;;;;;37.78;14.68;;;;;;;22.89;16.95;98701.38;5058226;28;20029;-88
2021/03/26 03:52:24;;;;;;;35.90;16.23;;;;;;;23.17;16.38;98697.56;5040909;28;20065;-88
2021/03/26 03:55:09;;;;;;;38.67;17.23;;;;;;;23.29;16.04;98697.06;5056835;28;20048;-88
2021/03/26 03:58:11;;;;;;;34.80;15.82;;;;;;;22.94;16.41;98706.50;5049453;28;20558;-88
2021/03/26 04:00:45;;;;;;;36.05;17.58;;;;;;;22.83;16.59;98707.78;5040137;28;20049;-88
2021/03/26 04:03:14;;;;;;;37.72;15.07;;;;;;;22.82;16.30;98706.22;5058664;28;20485;-88
2021/03/26 04:05:43;;;;;;;35.22;15.30;;;;;;;23.09;16.21;98707.22;5051141;28;20503;-88
2021/03/26 04:08:17;;;;;;;35.72;14.30;;;;;;;23.28;15.93;98709.47;5065009;28;20971;-87
2021/03/26 04:10:49;;;;;;;36.63;16.38;;;;;;;23.33;16.06;98704.22;5058412;28;20135;-88
2021/03/26 04:13:22;;;;;;;34.50;14.98;;;;;;;23.37;16.17;98695.78;5081711;28;20079;-88
2021/03/26 04:16:00;;;;;;;34.15;14.13;;;;;;;23.45;15.92;98704.94;5080791;28;20052;-88
2021/03/26 04:18:32;;;;;;;34.92;15.23;;;;;;;23.33;16.10;98703.41;5079666;28;20935;-88
2021/03/26 04:21:05;;;;;;;36.40;16.10;;;;;;;23.36;16.16;98708.22;5084620;28;20054;-87
2021/03/26 04:23:43;;;;;;;35.25;15.55;;;;;;;23.38;16.04;98707.81;5089482;28;20033;-87
2021/03/26 04:26:34;;;;;;;33.05;14.65;;;;;;;23.32;16.33;98704.59;5084895;28;20564;-87
2021/03/26 04:29:18;;;;;;;35.25;15.32;;;;;;;23.45;16.02;98708.53;5085543;28;20043;-88
2021/03/26 04:32:06;;;;;;;31.55;13.85;;;;;;;22.72;16.62;98710.69;5063577;28;20411;-87
2021/03/26 04:34:33;;;;;;;37.42;15.10;;;;;;;22.53;16.83;98717.56;5080791;28;20032;-88
2021/03/26 04:37:04;;;;;;;45.50;17.30;;;;;;;22.69;16.97;98711.50;5080020;28;20039;-88
2021/03/26 04:39:45;;;;;;;40.95;18.08;;;;;;;23.03;16.32;98712.47;5085836;28;20040;-88
2021/03/26 04:42:35;;;;;;;38.63;16.23;;;;;;;23.52;15.96;98705.66;5078227;28;20083;-88
2021/03/26 04:45:15;;;;;;;37.08;15.68;;;;;;;23.70;15.74;98711.88;5077239;28;20082;-87
2021/03/26 04:47:56;;;;;;;31.00;14.40;;;;;;;23.78;15.61;98712.63;5077513;28;20039;-87
2021/03/26 04:50:30;;;;;;;35.35;15.80;;;;;;;23.83;15.49;98723.34;5084119;28;20027;-87
2021/03/26 04:53:08;;;;;;;39.97;16.70;;;;;;;23.89;15.39;98724.50;5081417;28;20034;-87
2021/03/26 04:55:39;;;;;;;33.50;16.92;;;;;;;23.77;15.63;98717.41;5078433;28;20028;-87
2021/03/26 04:58:08;;;;;;;39.05;15.80;;;;;;;23.49;16.25;98722.50;5080441;28;20107;-87
2021/03/26 05:00:44;;;;;;;38.92;17.02;;;;;;;23.77;15.85;98723.03;5082750;28;22579;-87
2021/03/26 05:03:23;;;;;;;37.88;17.58;;;;;;;23.62;16.30;98732.78;5067823;28;20116;-87
2021/03/26 05:06:09;;;;;;;42.08;18.30;;;;;;;23.47;16.56;98724.94;5061846;28;20499;-87
2021/03/26 05:08:41;;;;;;;34.40;16.30;;;;;;;23.38;16.79;98726.19;5079930;28;20659;-87
2021/03/26 05:11:09;;;;;;;31.15;15.27;;;;;;;23.50;16.82;98721.31;5075221;28;20044;-87
2021/03/26 05:13:49;;;;;;;33.78;14.43;;;;;;;23.76;16.24;98729.84;5089291;28;20024;-88
2021/03/26 05:16:22;;;;;;;35.40;17.00;;;;;;;24.23;16.48;98735.75;5076752;28;20032;-86
2021/03/26 05:18:56;;;;;;;33.03;14.43;;;;;;;24.42;16.01;98729.50;5082249;28;20040;-85
2021/03/26 05:21:32;;;;;;;37.20;16.15;;;;;;;24.46;16.24;98735.84;5077755;28;20039;-87
2021/03/26 05:24:08;;;;;;;38.97;15.73;;;;;;;24.82;15.99;98737.00;5082978;28;20106;-87
2021/03/26 05:26:35;;;;;;;31.20;14.68;;;;;;;25.10;15.70;98741.41;5082988;28;20119;-88
2021/03/26 05:29:04;;;;;;;38.63;17.27;;;;;;;25.15;15.72;98743.72;5085954;28;20146;-87
2021/03/26 05:31:37;;;;;;;34.83;17.23;;;;;;;25.07;16.01;98740.22;5091891;28;20036;-87
2021/03/26 05:34:12;;;;;;;31.73;15.15;;;;;;;25.20;15.83;98743.25;5085995;28;20029;-86
2021/03/26 05:37:19;;;;;;;30.52;14.85;;;;;;;25.23;16.03;98746.00;5086118;28;20368;-85
2021/03/26 05:39:55;;;;;;;30.98;14.27;;;;;;;25.17;16.04;98749.72;5054972;28;20522;-86
2021/03/26 05:42:32;;;;;;;29.05;13.73;;;;;;;24.99;16.20;98752.81;5081423;28;20497;-86
2021/03/26 05:45:18;;;;;;;28.60;13.55;;;;;;;25.07;16.32;98750.66;5082503;28;20058;-86
2021/03/26 05:48:08;;;;;;;34.13;16.73;;;;;;;25.12;16.44;98747.38;5087214;28;20033;-86
2021/03/26 05:50:48;;;;;;;33.85;14.82;;;;;;;25.10;16.59;98747.00;5079489;28;20124;-86
2021/03/26 05:53:39;;;;;;;31.92;15.18;;;;;;;24.92;16.70;98747.28;5083744;28;20050;-86
2021/03/26 05:56:20;;;;;;;27.95;13.88;;;;;;;24.78;17.02;98746.69;5081957;28;20058;-91
2021/03/26 05:58:55;;;;;;;;;;;;;;;24.37;17.63;98744.78;5079990;28;20044;-92
2021/03/26 06:01:47;;;;;;;36.95;15.93;;;;;;;24.25;17.88;98750.19;5086887;28;19916;-91
2021/03/26 06:04:36;;;;;;;35.60;15.50;;;;;;;24.43;17.55;98747.94;5080276;28;20028;-91
2021/03/26 06:07:40;;;;;;;34.60;15.50;;;;;;;24.42;17.80;98755.56;5061500;28;20037;-92
2021/03/26 06:10:28;;;;;;;32.08;15.00;;;;;;;24.56;17.81;98757.38;5082598;28;20048;-90
2021/03/26 06:13:12;;;;;;;35.47;15.15;;;;;;;24.74;17.55;98755.13;5057328;28;20045;-91
2021/03/26 06:16:04;;;;;;;35.95;16.70;;;;;;;24.58;18.04;98750.13;5049147;28;20025;-93
2021/03/26 06:18:49;;;;;;;37.20;15.15;;;;;;;24.77;17.67;98750.72;5066013;28;20032;-90
2021/03/26 06:21:35;;;;;;;32.55;15.82;;;;;;;24.87;17.72;98755.41;5037652;28;20028;-94
2021/03/26 06:24:48;;;;;;;32.08;14.85;;;;;;;25.03;17.57;98761.97;5061810;28;20048;-93
2021/03/26 06:27:28;;;;;;;35.38;17.17;;;;;;;25.06;18.00;98763.16;5044075;28;20396;-91
2021/03/26 06:30:27;;;;;;;36.60;17.93;;;;;;;25.18;18.15;98765.38;5061762;28;20037;-92
2021/03/26 06:33:21;;;;;;;37.28;18.20;;;;;;;25.12;17.97;98769.88;5057717;28;20025;-92
2021/03/26 06:36:02;;;;;;;47.47;23.50;;;;;;;23.88;19.17;98777.00;5062956;28;20051;-87
2021/03/26 06:38:47;;;;;;;42.30;19.92;;;;;;;24.07;19.19;98772.00;5055680;28;20029;-89
2021/03/26 06:41:50;;;;;;;45.65;22.63;;;;;;;24.13;19.66;98770.38;5053835;28;20033;-89
2021/03/26 06:44:44;;;;;;;42.28;23.48;;;;;;;23.97;19.72;98774.50;5069491;28;20043;-89
2021/03/26 06:47:49;;;;;;;41.72;20.77;;;;;;;23.96;19.92;98775.72;5065898;28;20029;-89
2021/03/26 06:50:31;;;;;;;37.35;16.63;;;;;;;24.58;19.29;98777.41;5068711;28;20032;-89
2021/03/26 06:53:21;;;;;;;44.80;21.55;;;;;;;24.06;20.26;98776.84;5065913;28;20067;-88
2021/03/26 06:56:02;;;;;;;36.50;18.80;;;;;;;24.86;19.49;98776.25;5070109;28;20037;-89
2021/03/26 06:58:54;;;;;;;35.85;18.17;;;;;;;25.56;19.09;98780.03;5064892;28;20032;-89
2021/03/26 07:01:48;;;;;;;32.85;17.90;;;;;;;25.95;18.38;98780.16;5068922;28;20067;-89
2021/03/26 07:04:44;;;;;;;43.95;24.02;;;;;;;24.62;19.61;98783.81;5058601;28;20115;-89
2021/03/26 07:07:38;;;;;;;35.30;17.42;;;;;;;25.60;18.91;98775.16;5051682;28;20424;-89
2021/03/26 07:10:29;;;;;;;31.60;16.95;;;;;;;25.91;18.04;98768.16;5048889;28;20045;-89
2021/03/26 07:13:07;;;;;;;51.08;25.65;;;;;;;25.13;19.55;98769.47;5064644;28;20047;-89
2021/03/26 07:15:58;;;;;;;44.67;24.27;;;;;;;25.21;19.54;98778.56;5069666;28;20477;-89
2021/03/26 07:18:39;;;;;;;50.75;25.23;;;;;;;24.29;20.04;98779.00;5054541;28;20016;-89
2021/03/26 07:21:08;;;;;;;36.08;18.70;;;;;;;24.84;20.25;98773.09;5069110;28;20119;-89
2021/03/26 07:23:59;;;;;;;35.17;18.70;;;;;;;25.01;19.03;98778.47;5070038;28;20036;-89
2021/03/26 07:26:46;;;;;;;43.78;24.27;;;;;;;24.19;20.00;98780.69;5072801;28;20083;-89
2021/03/26 07:29:45;;;;;;;36.33;18.08;;;;;;;25.60;19.33;98781.56;5072636;28;20028;-90
2021/03/26 07:32:43;;;;;;;36.03;18.05;;;;;;;25.81;19.38;98780.41;5072699;28;20045;-90
2021/03/26 07:35:32;;;;;;;32.42;17.05;;;;;;;26.72;18.49;98777.81;5067341;28;20059;-89
2021/03/26 07:38:39;;;;;;;36.17;19.95;;;;;;;25.89;18.83;98788.28;5072910;28;20495;-89
2021/03/26 07:41:40;;;;;;;49.92;26.38;;;;;;;25.05;20.09;98789.63;4960368;28;20082;-90
2021/03/26 07:44:18;;;;;;;50.30;27.48;;;;;;;24.20;20.95;98793.50;5065991;28;20534;-89
2021/03/26 07:47:19;;;;;;;49.90;26.20;;;;;;;24.49;20.40;98791.97;5065452;28;20043;-89
2021/03/26 07:50:07;;;;;;;39.08;21.42;;;;;;;25.09;20.13;98802.41;5057746;28;20124;-89
2021/03/26 07:52:44;;;;;;;38.67;19.40;;;;;;;26.37;19.55;98795.47;5076243;28;20033;-89
2021/03/26 07:55:20;;;;;;;40.70;23.45;;;;;;;25.84;19.84;98807.66;5058308;28;20102;-89
2021/03/26 07:58:23;;;;;;;35.92;20.75;;;;;;;25.63;19.67;98810.84;5076629;28;20039;-90
2021/03/26 08:01:16;;;;;;;30.80;17.60;;;;;;;26.58;20.03;98797.84;5075559;28;20110;-89
2021/03/26 08:04:07;;;;;;;47.38;25.77;;;;;;;26.38;19.74;98803.47;5066240;28;20036;-89
2021/03/26 08:06:36;;;;;;;47.33;23.40;;;;;;;26.10;20.01;98801.19;5075528;28;20047;-89
2021/03/26 08:09:21;;;;;;;45.17;25.55;;;;;;;26.70;18.44;98803.59;5080851;28;20094;-89
2021/03/26 08:11:53;;;;;;;45.45;23.40;;;;;;;27.77;17.71;98802.75;5072961;28;20075;-89
2021/03/26 08:14:43;;;;;;;34.70;18.50;;;;;;;28.13;18.29;98810.31;5067049;28;20029;-89
2021/03/26 08:17:35;;;;;;;35.70;19.70;;;;;;;28.79;16.98;98810.50;5063112;28;20399;-89
2021/03/26 08:20:19;;;;;;;33.45;19.27;;;;;;;28.91;17.47;98808.94;5057638;28;20067;-89
2021/03/26 08:23:05;;;;;;;31.73;16.23;;;;;;;29.15;16.32;98815.88;5070734;28;20055;-89
2021/03/26 08:25:59;;;;;;;31.83;17.83;;;;;;;29.12;16.06;98809.09;5073702;28;20059;-89
2021/03/26 08:28:37;;;;;;;28.98;16.73;;;;;;;29.11;15.65;98812.34;5075714;28;20083;-89
2021/03/26 08:31:22;;;;;;;31.05;17.50;;;;;;;28.95;16.07;98812.44;5067337;28;20091;-89
2021/03/26 08:34:15;;;;;;;32.67;19.52;;;;;;;29.41;16.34;98815.47;5075213;28;20032;-89
2021/03/26 08:36:56;;;;;;;45.95;21.55;;;;;;;29.22;16.74;98813.63;5039872;28;20032;-89
2021/03/26 08:39:33;;;;;;;;;;;;;;;28.44;17.59;98814.31;5061354;28;20117;-89
2021/03/26 08:42:17;;;;;;;32.72;17.27;;;;;;;29.49;16.62;98813.19;5053780;28;19921;-89
2021/03/26 08:44:49;;;;;;;32.03;16.65;;;;;;;30.21;16.65;98823.72;5071969;28;20495;-89
2021/03/26 08:47:35;;;;;;;27.33;15.00;;;;;;;30.63;16.47;98823.00;5061912;28;20071;-89
2021/03/26 08:50:24;;;;;;;30.20;16.50;;;;;;;30.58;14.96;98819.97;5065142;28;20033;-89
2021/03/26 08:53:28;;;;;;;24.00;14.40;;;;;;;30.73;15.87;98813.34;5071274;28;20035;-89
2021/03/26 08:56:34;;;;;;;29.92;17.17;;;;;;;30.37;15.07;98821.53;5070691;28;20016;-89
2021/03/26 08:59:28;;;;;;;34.65;20.52;;;;;;;29.84;15.51;98814.88;5058685;28;20036;-89
2021/03/26 09:02:14;;;;;;;32.75;19.08;;;;;;;29.09;16.19;98815.63;5068914;28;20029;-89
2021/03/26 09:04:55;;;;;;;44.22;24.38;;;;;;;28.05;17.58;98815.41;5043055;28;20114;-89
2021/03/26 09:07:36;;;;;;;34.88;19.90;;;;;;;28.49;17.31;98816.59;5063798;28;20032;-89
2021/03/26 09:10:40;;;;;;;31.40;16.40;;;;;;;29.74;15.97;98818.81;5054784;28;20044;-89
2021/03/26 09:13:25;;;;;;;30.80;18.45;;;;;;;30.24;15.41;98820.78;5013634;28;20094;-89
2021/03/26 09:16:18;;;;;;;50.10;28.33;;;;;;;27.66;16.81;98819.16;5069341;28;20111;-89
2021/03/26 09:19:10;;;;;;;32.80;19.15;;;;;;;29.01;16.51;98822.75;5066936;28;20503;-89
2021/03/26 09:21:39;;;;;;;27.90;16.58;;;;;;;30.11;15.36;98824.91;5069084;28;20031;-89
2021/03/26 09:24:36;;;;;;;25.02;14.77;;;;;;;30.71;15.50;98823.56;5067495;28;20032;-89
2021/03/26 09:27:19;;;;;;;28.38;16.02;;;;;;;31.41;15.06;98814.34;5059986;28;20029;-89
2021/03/26 09:29:56;;;;;;;28.45;16.10;;;;;;;31.64;15.00;98821.56;5067865;28;20377;-89
2021/03/26 09:32:27;;;;;;;25.50;15.40;;;;;;;31.85;14.76;98804.44;5060705;28;20036;-91
2021/03/26 09:35:18;;;;;;;29.98;17.45;;;;;;;31.49;14.86;98812.81;5061298;28;20028;-91
2021/03/26 09:37:44;;;;;;;34.50;21.27;;;;;;;31.36;14.84;98806.44;5069011;28;20048;-92
2021/03/26 09:40:21;;;;;;;32.50;20.10;;;;;;;30.75;15.37;98807.19;5064343;28;20049;-90
2021/03/26 09:43:02;;;;;;;24.48;14.82;;;;;;;30.87;15.40;98806.31;5068348;28;20041;-91
2021/03/26 09:45:34;;;;;;;33.72;19.55;;;;;;;29.16;15.92;98815.41;5068256;28;20039;-91
2021/03/26 09:48:30;;;;;;;29.17;17.77;;;;;;;29.14;15.50;98812.25;5067854;28;20043;-91
2021/03/26 09:51:33;;;;;;;39.22;22.83;;;;;;;28.27;16.68;98807.91;5057106;28;20057;-91
2021/03/26 09:54:35;;;;;;;32.45;17.17;;;;;;;29.62;16.36;98804.69;5056433;28;20030;-91
2021/03/26 09:57:23;;;;;;;25.83;15.55;;;;;;;30.52;14.60;98799.16;5050873;28;20041;-91
2021/03/26 10:00:03;;;;;;;36.60;21.65;;;;;;;29.95;15.61;98803.97;5069084;28;20463;-91
2021/03/26 10:02:37;;;;;;;26.02;15.80;;;;;;;30.60;15.97;98795.56;5046413;28;20499;-91
2021/03/26 10:05:27;;;;;;;27.92;15.00;;;;;;;31.38;15.12;98793.38;5068690;28;20029;-91
2021/03/26 10:08:19;;;;;;;28.20;16.10;;;;;;;31.22;14.51;98792.81;5064505;28;20021;-90
2021/03/26 10:10:47;;;;;;;24.73;14.40;;;;;;;31.36;15.35;98780.91;5065594;28;20347;-91
2021/03/26 10:13:21;;;;;;;23.08;13.32;;;;;;;31.29;15.03;98787.66;5061002;28;20197;-91
2021/03/26 10:16:04;;;;;;;27.58;16.88;;;;;;;31.02;14.81;98789.56;5066992;28;20036;-91
2021/03/26 10:18:45;;;;;;;42.05;25.95;;;;;;;27.91;16.08;98791.09;5067238;28;20036;-91
2021/03/26 10:21:15;;;;;;;42.03;25.13;;;;;;;25.54;20.77;98793.72;5053803;28;20029;-91
2021/03/26 10:23:59;;;;;;;25.23;14.77;;;;;;;28.50;17.35;98784.25;5061814;28;20053;-90
2021/03/26 10:26:25;;;;;;;30.30;15.20;;;;;;;30.34;15.49;98787.69;5070321;28;20070;-90
2021/03/26 10:28:58;;;;;;;34.53;20.75;;;;;;;29.98;15.66;98786.06;5064713;28;20033;-90
2021/03/26 10:31:35;;;;;;;25.55;15.50;;;;;;;30.98;14.62;98774.72;5042566;28;20533;-90
2021/03/26 10:34:06;;;;;;;24.02;14.60;;;;;;;31.70;13.74;98777.06;5061949;28;20050;-90
2021/03/26 10:37:03;;;;;;;34.95;21.65;;;;;;;31.03;13.74;98768.47;5062448;28;20440;-90
2021/03/26 10:39:42;;;;;;;45.25;26.48;;;;;;;26.76;18.78;98784.19;5072173;28;20140;-90
2021/03/26 10:42:33;;;;;;;37.08;23.40;;;;;;;26.05;18.77;98779.94;5049513;28;20071;-90
2021/03/26 10:45:27;;;;;;;38.72;24.10;;;;;;;26.80;18.44;98770.03;5047826;28;20032;-90
2021/03/26 10:48:32;;;;;;;33.63;19.30;;;;;;;27.49;16.50;98769.66;5058923;28;20083;-90
2021/03/26 10:51:36;;;;;;;37.28;23.17;;;;;;;26.65;17.52;98766.72;5056365;28;20029;-90
2021/03/26 10:54:14;;;;;;;43.10;25.88;;;;;;;24.84;19.14;98771.06;5058486;28;20108;-91
2021/03/26 10:56:51;;;;;;;35.75;20.67;;;;;;;25.92;19.19;98769.75;5071873;28;20086;-90
2021/03/26 10:59:23;;;;;;;44.35;25.27;;;;;;;24.05;20.40;98772.41;5064983;28;20074;-90
2021/03/26 11:01:57;;;;;;;41.40;24.08;;;;;;;23.96;21.41;98770.09;5038069;28;20412;-90
2021/03/26 11:04:35;;;;;;;38.28;22.25;;;;;;;23.65;20.83;98767.59;5056535;28;20024;-90
2021/03/26 11:07:12;;;;;;;39.15;22.92;;;;;;;25.66;19.22;98762.19;5044703;28;20060;-90
2021/03/26 11:09:46;;;;;;;42.83;25.00;;;;;;;25.35;18.67;98765.06;5061703;28;20031;-90
2021/03/26 11:12:24;;;;;;;39.78;24.63;;;;;;;25.69;18.06;98756.50;5063324;28;20039;-91
2021/03/26 11:14:50;;;;;;;39.75;23.40;;;;;;;25.51;19.46;98760.84;5075424;28;20067;-90
2021/03/26 11:17:16;;;;;;;37.28;22.23;;;;;;;24.88;19.91;98763.38;5068767;28;20508;-90
2021/03/26 11:20:40;;;;;;;40.70;23.75;;;;;;;24.63;19.35;98751.69;5059949;28;20036;-93
2021/03/26 11:23:28;;;;;;;37.58;22.58;;;;;;;26.74;17.90;98748.00;4991793;28;20062;-91
2021/03/26 11:25:54;;;;;;;37.80;22.55;;;;;;;25.95;19.19;98744.34;4997144;28;20029;-91
2021/03/26 11:28:26;;;;;;;39.55;24.50;;;;;;;25.16;20.49;98753.72;5049962;28;20388;-93
2021/03/26 11:30:58;;;;;;;35.35;21.67;;;;;;;24.96;19.13;98761.28;5069117;28;20037;-93
2021/03/26 11:33:49;;;;;;;34.80;21.65;;;;;;;25.85;18.02;98741.75;5074381;28;20089;-91
2021/03/26 11:36:43;;;;;;;33.03;19.67;;;;;;;27.32;16.64;98740.59;5066374;28;20435;-91
2021/03/26 11:39:28;;;;;;;35.35;21.65;;;;;;;26.53;17.17;98740.00;5069317;28;20479;-90
2021/03/26 11:42:06;;;;;;;35.35;21.58;;;;;;;25.92;18.73;98736.78;5074961;28;20036;-93
2021/03/26 11:44:39;;;;;;;34.53;20.90;;;;;;;26.22;19.03;98735.81;5065751;28;20155;-91
2021/03/26 11:47:27;;;;;;;30.63;17.92;;;;;;;25.96;17.54;98739.53;5073453;28;20062;-88
2021/03/26 11:50:26;;;;;;;28.27;16.23;;;;;;;29.19;15.47;98734.56;5053213;28;20103;-90
2021/03/26 11:53:18;;;;;;;30.30;19.77;;;;;;;27.64;16.07;98737.00;5057742;28;20389;-89
2021/03/26 11:55:58;;;;;;;21.77;13.55;;;;;;;29.10;16.39;98732.38;5062248;28;20049;-96
2021/03/26 11:58:34;;;;;;;33.15;20.38;;;;;;;27.51;17.54;98732.53;5054798;28;20369;-95
2021/03/26 12:01:08;;;;;;;32.58;19.55;;;;;;;27.31;17.87;98730.56;5069432;28;20037;-94
2021/03/26 12:03:59;;;;;;;36.53;21.55;;;;;;;25.08;18.42;98732.59;5075753;28;20488;-94
2021/03/26 12:06:35;;;;;;;32.03;19.60;;;;;;;25.47;18.60;98729.16;5075566;28;20027;-94
2021/03/26 12:09:31;;;;;;;26.73;17.48;;;;;;;27.55;17.12;98721.94;5072935;28;20059;-94
2021/03/26 12:12:00;;;;;;;26.02;15.45;;;;;;;28.67;16.09;98723.66;5067235;28;20136;-93
2021/03/26 12:14:32;;;;;;;23.85;14.15;;;;;;;30.65;14.80;98715.63;5061487;28;20056;-93
2021/03/26 12:17:26;;;;;;;26.92;15.18;;;;;;;31.72;13.40;98709.25;5068759;28;20040;-92